sensor_id;sensor_type;location;lat;lon;timestamp;pressure;altitude;pressure_sealevel;temperature;humidity
75594;BME280;64176;49.156;7.810;2022-11-11T00:00:23;100644.34;;;6.25;93.33
75594;BME280;64176;49.156;7.810;2022-11-11T00:03:27;100646.16;;;6.28;92.60
75594;BME280;64176;49.156;7.810;2022-11-11T00:06:29;100646.84;;;6.24;92.98
75594;BME280;64176;49.156;7.810;2022-11-11T00:09:35;100630.47;;;6.21;93.05
75594;BME280;64176;49.156;7.810;2022-11-11T00:12:40;100638.56;;;6.31;92.52
75594;BME280;64176;49.156;7.810;2022-11-11T00:15:43;100631.69;;;6.30;92.85
75594;BME280;64176;49.156;7.810;2022-11-11T00:18:46;100616.22;;;6.09;93.60
75594;BME280;64176;49.156;7.810;2022-11-11T00:22:19;100644.53;;;6.30;92.69
75594;BME280;64176;49.156;7.810;2022-11-11T00:25:41;100643.06;;;6.35;93.18
75594;BME280;64176;49.156;7.810;2022-11-11T00:28:44;100640.41;;;6.33;92.45
75594;BME280;64176;49.156;7.810;2022-11-11T00:31:46;100650.91;;;6.38;92.83
75594;BME280;64176;49.156;7.810;2022-11-11T00:35:09;100651.72;;;6.37;92.91
75594;BME280;64176;49.156;7.810;2022-11-11T00:38:31;100657.25;;;5.90;93.85
75594;BME280;64176;49.156;7.810;2022-11-11T00:41:50;100660.00;;;6.12;93.80
75594;BME280;64176;49.156;7.810;2022-11-11T00:44:53;100656.91;;;6.38;93.15
75594;BME280;64176;49.156;7.810;2022-11-11T00:47:56;100656.56;;;6.31;93.07
75594;BME280;64176;49.156;7.810;2022-11-11T00:51:17;100661.09;;;6.17;93.72
75594;BME280;64176;49.156;7.810;2022-11-11T00:54:20;100652.91;;;6.06;93.38
75594;BME280;64176;49.156;7.810;2022-11-11T00:57:23;100663.91;;;6.04;93.09
75594;BME280;64176;49.156;7.810;2022-11-11T01:00:28;100657.56;;;6.15;93.34
75594;BME280;64176;49.156;7.810;2022-11-11T01:03:31;100662.41;;;6.09;93.17
75594;BME280;64176;49.156;7.810;2022-11-11T01:06:34;100675.13;;;6.06;92.93
75594;BME280;64176;49.156;7.810;2022-11-11T01:09:38;100671.31;;;5.62;93.48
75594;BME280;64176;49.156;7.810;2022-11-11T01:12:40;100684.13;;;5.62;93.54
75594;BME280;64176;49.156;7.810;2022-11-11T01:15:49;100682.13;;;5.74;93.22
75594;BME280;64176;49.156;7.810;2022-11-11T01:18:54;100679.59;;;5.92;93.14
75594;BME280;64176;49.156;7.810;2022-11-11T01:21:57;100668.16;;;6.03;92.46
75594;BME280;64176;49.156;7.810;2022-11-11T01:25:00;100671.53;;;6.02;92.07
75594;BME280;64176;49.156;7.810;2022-11-11T01:28:04;100672.97;;;5.97;92.15
75594;BME280;64176;49.156;7.810;2022-11-11T01:31:11;100678.34;;;5.84;92.10
75594;BME280;64176;49.156;7.810;2022-11-11T01:34:15;100676.16;;;5.92;92.24
75594;BME280;64176;49.156;7.810;2022-11-11T01:37:18;100673.13;;;6.00;91.31
75594;BME280;64176;49.156;7.810;2022-11-11T01:40:20;100679.59;;;5.92;91.47
75594;BME280;64176;49.156;7.810;2022-11-11T01:43:26;100681.78;;;5.84;92.23
75594;BME280;64176;49.156;7.810;2022-11-11T01:49:52;100672.19;;;5.80;91.86
75594;BME280;64176;49.156;7.810;2022-11-11T01:53:02;100674.09;;;5.49;92.93
75594;BME280;64176;49.156;7.810;2022-11-11T01:56:05;100661.88;;;5.61;92.52
75594;BME280;64176;49.156;7.810;2022-11-11T01:59:12;100662.06;;;5.48;92.36
75594;BME280;64176;49.156;7.810;2022-11-11T02:02:33;100670.78;;;5.69;91.46
75594;BME280;64176;49.156;7.810;2022-11-11T02:05:41;100669.47;;;5.60;91.62
75594;BME280;64176;49.156;7.810;2022-11-11T02:08:45;100663.84;;;5.49;92.13
75594;BME280;64176;49.156;7.810;2022-11-11T02:11:52;100661.72;;;5.58;91.84
75594;BME280;64176;49.156;7.810;2022-11-11T02:15:15;100665.00;;;5.73;91.18
75594;BME280;64176;49.156;7.810;2022-11-11T02:18:20;100669.47;;;5.60;91.55
75594;BME280;64176;49.156;7.810;2022-11-11T02:21:34;100658.00;;;5.52;91.79
75594;BME280;64176;49.156;7.810;2022-11-11T02:24:41;100656.41;;;5.55;91.85
75594;BME280;64176;49.156;7.810;2022-11-11T02:27:47;100659.28;;;5.43;92.19
75594;BME280;64176;49.156;7.810;2022-11-11T02:30:51;100663.53;;;5.25;92.71
75594;BME280;64176;49.156;7.810;2022-11-11T02:33:54;100658.03;;;5.53;92.15
75594;BME280;64176;49.156;7.810;2022-11-11T02:37:07;100660.31;;;5.47;92.08
75594;BME280;64176;49.156;7.810;2022-11-11T02:40:15;100665.44;;;5.47;92.24
75594;BME280;64176;49.156;7.810;2022-11-11T02:43:18;100635.97;;;5.21;91.63
75594;BME280;64176;49.156;7.810;2022-11-11T02:46:21;100661.47;;;5.36;91.91
75594;BME280;64176;49.156;7.810;2022-11-11T02:49:24;100651.06;;;5.33;92.11
75594;BME280;64176;49.156;7.810;2022-11-11T02:52:27;100655.47;;;5.18;93.13
75594;BME280;64176;49.156;7.810;2022-11-11T02:55:29;100652.22;;;5.22;92.38
75594;BME280;64176;49.156;7.810;2022-11-11T02:58:33;100647.78;;;5.18;92.88
75594;BME280;64176;49.156;7.810;2022-11-11T03:01:38;100643.66;;;5.21;92.73
75594;BME280;64176;49.156;7.810;2022-11-11T03:04:41;100650.47;;;5.21;91.85
75594;BME280;64176;49.156;7.810;2022-11-11T03:07:46;100645.41;;;5.22;91.85
75594;BME280;64176;49.156;7.810;2022-11-11T03:10:49;100659.81;;;4.52;93.64
75594;BME280;64176;49.156;7.810;2022-11-11T03:13:56;100668.69;;;4.59;94.78
75594;BME280;64176;49.156;7.810;2022-11-11T03:16:59;100659.75;;;4.51;94.38
75594;BME280;64176;49.156;7.810;2022-11-11T03:20:21;100639.97;;;4.48;94.70
75594;BME280;64176;49.156;7.810;2022-11-11T03:23:59;100656.22;;;4.99;93.14
75594;BME280;64176;49.156;7.810;2022-11-11T03:27:02;100656.13;;;4.97;93.27
75594;BME280;64176;49.156;7.810;2022-11-11T03:30:08;100659.31;;;4.59;93.44
75594;BME280;64176;49.156;7.810;2022-11-11T03:33:12;100657.00;;;4.31;94.80
75594;BME280;64176;49.156;7.810;2022-11-11T03:36:15;100674.53;;;4.56;93.37
75594;BME280;64176;49.156;7.810;2022-11-11T03:39:20;100688.75;;;4.19;93.44
75594;BME280;64176;49.156;7.810;2022-11-11T03:42:25;100688.81;;;4.20;93.21
75594;BME280;64176;49.156;7.810;2022-11-11T03:45:28;100702.13;;;4.29;92.96
75594;BME280;64176;49.156;7.810;2022-11-11T03:48:33;100711.38;;;4.27;92.25
75594;BME280;64176;49.156;7.810;2022-11-11T03:51:36;100711.19;;;4.08;92.33
75594;BME280;64176;49.156;7.810;2022-11-11T03:54:38;100710.38;;;4.56;91.46
75594;BME280;64176;49.156;7.810;2022-11-11T03:57:45;100683.25;;;4.60;90.43
75594;BME280;64176;49.156;7.810;2022-11-11T04:00:50;100718.19;;;4.75;91.55
75594;BME280;64176;49.156;7.810;2022-11-11T04:03:53;100710.59;;;4.77;91.15
75594;BME280;64176;49.156;7.810;2022-11-11T04:07:15;100715.63;;;4.75;91.24
75594;BME280;64176;49.156;7.810;2022-11-11T04:10:39;100732.78;;;4.93;91.02
75594;BME280;64176;49.156;7.810;2022-11-11T04:13:44;100732.84;;;4.94;90.91
75594;BME280;64176;49.156;7.810;2022-11-11T04:17:07;100729.97;;;4.72;90.81
75594;BME280;64176;49.156;7.810;2022-11-11T04:20:10;100732.84;;;4.94;91.35
75594;BME280;64176;49.156;7.810;2022-11-11T04:23:31;100737.41;;;5.00;90.97
75594;BME280;64176;49.156;7.810;2022-11-11T04:26:36;100737.09;;;4.94;90.95
75594;BME280;64176;49.156;7.810;2022-11-11T04:29:40;100744.31;;;4.85;90.95
75594;BME280;64176;49.156;7.810;2022-11-11T04:32:44;100743.44;;;4.84;91.11
75594;BME280;64176;49.156;7.810;2022-11-11T04:35:49;100738.75;;;4.77;91.59
75594;BME280;64176;49.156;7.810;2022-11-11T04:38:52;100740.88;;;3.90;93.26
75594;BME280;64176;49.156;7.810;2022-11-11T04:42:14;100749.69;;;3.95;94.30
75594;BME280;64176;49.156;7.810;2022-11-11T04:45:17;100758.47;;;4.00;94.41
75594;BME280;64176;49.156;7.810;2022-11-11T04:48:37;100757.78;;;4.33;94.07
75594;BME280;64176;49.156;7.810;2022-11-11T04:51:43;100764.66;;;3.89;93.50
75594;BME280;64176;49.156;7.810;2022-11-11T04:55:05;100760.38;;;3.73;94.99
75594;BME280;64176;49.156;7.810;2022-11-11T04:58:29;100756.31;;;3.77;94.24
75594;BME280;64176;49.156;7.810;2022-11-11T05:01:32;100756.94;;;3.73;93.75
75594;BME280;64176;49.156;7.810;2022-11-11T05:04:54;100757.97;;;3.91;93.29
75594;BME280;64176;49.156;7.810;2022-11-11T05:08:00;100765.13;;;3.82;93.12
75594;BME280;64176;49.156;7.810;2022-11-11T05:11:23;100771.25;;;4.00;92.38
75594;BME280;64176;49.156;7.810;2022-11-11T05:14:29;100767.72;;;4.13;92.17
75594;BME280;64176;49.156;7.810;2022-11-11T05:17:51;100770.44;;;4.16;90.68
75594;BME280;64176;49.156;7.810;2022-11-11T05:21:24;100770.06;;;4.24;91.21
75594;BME280;64176;49.156;7.810;2022-11-11T05:24:28;100770.34;;;4.29;91.28
75594;BME280;64176;49.156;7.810;2022-11-11T05:27:54;100768.72;;;4.31;90.86
75594;BME280;64176;49.156;7.810;2022-11-11T05:30:57;100771.91;;;4.27;91.67
75594;BME280;64176;49.156;7.810;2022-11-11T05:34:00;100776.44;;;4.47;91.57
75594;BME280;64176;49.156;7.810;2022-11-11T05:37:03;100767.63;;;4.42;92.38
75594;BME280;64176;49.156;7.810;2022-11-11T05:40:10;100773.69;;;4.44;91.60
75594;BME280;64176;49.156;7.810;2022-11-11T05:43:16;100780.41;;;4.42;92.23
75594;BME280;64176;49.156;7.810;2022-11-11T05:46:19;100777.22;;;4.46;92.07
75594;BME280;64176;49.156;7.810;2022-11-11T05:49:22;100741.13;;;4.25;92.21
75594;BME280;64176;49.156;7.810;2022-11-11T05:52:27;100781.84;;;4.37;92.55
75594;BME280;64176;49.156;7.810;2022-11-11T05:55:29;100778.50;;;4.38;91.46
75594;BME280;64176;49.156;7.810;2022-11-11T05:58:35;100787.81;;;4.52;91.48
75594;BME280;64176;49.156;7.810;2022-11-11T06:01:38;100787.81;;;4.52;91.50
75594;BME280;64176;49.156;7.810;2022-11-11T06:04:42;100777.00;;;4.42;91.73
75594;BME280;64176;49.156;7.810;2022-11-11T06:07:47;100789.19;;;4.31;92.28
75594;BME280;64176;49.156;7.810;2022-11-11T06:10:58;100789.97;;;3.99;93.54
75594;BME280;64176;49.156;7.810;2022-11-11T06:14:01;100797.78;;;3.86;93.57
75594;BME280;64176;49.156;7.810;2022-11-11T06:17:04;100800.13;;;3.68;93.01
75594;BME280;64176;49.156;7.810;2022-11-11T06:20:10;100813.44;;;3.77;94.80
75594;BME280;64176;49.156;7.810;2022-11-11T06:23:14;100811.50;;;3.88;93.19
75594;BME280;64176;49.156;7.810;2022-11-11T06:26:19;100812.94;;;3.97;92.96
75594;BME280;64176;49.156;7.810;2022-11-11T06:29:23;100817.06;;;3.81;92.73
75594;BME280;64176;49.156;7.810;2022-11-11T06:32:27;100803.78;;;3.14;93.98
75594;BME280;64176;49.156;7.810;2022-11-11T06:35:33;100822.34;;;3.69;93.66
75594;BME280;64176;49.156;7.810;2022-11-11T06:38:39;100818.88;;;3.98;92.55
75594;BME280;64176;49.156;7.810;2022-11-11T06:41:43;100818.03;;;3.83;92.76
75594;BME280;64176;49.156;7.810;2022-11-11T06:44:45;100819.97;;;4.01;91.82
75594;BME280;64176;49.156;7.810;2022-11-11T06:47:48;100812.09;;;3.98;91.24
75594;BME280;64176;49.156;7.810;2022-11-11T06:50:52;100826.41;;;3.65;91.37
75594;BME280;64176;49.156;7.810;2022-11-11T06:53:55;100827.47;;;3.69;92.64
75594;BME280;64176;49.156;7.810;2022-11-11T06:56:57;100829.25;;;3.85;92.14
75594;BME280;64176;49.156;7.810;2022-11-11T07:00:01;100828.97;;;3.95;91.33
75594;BME280;64176;49.156;7.810;2022-11-11T07:03:05;100839.19;;;3.95;91.04
75594;BME280;64176;49.156;7.810;2022-11-11T07:06:09;100844.03;;;3.76;91.45
75594;BME280;64176;49.156;7.810;2022-11-11T07:09:14;100841.06;;;3.97;90.84
75594;BME280;64176;49.156;7.810;2022-11-11T07:12:19;100833.22;;;3.94;90.85
75594;BME280;64176;49.156;7.810;2022-11-11T07:15:25;100840.31;;;4.00;90.36
75594;BME280;64176;49.156;7.810;2022-11-11T07:18:28;100825.34;;;3.62;90.81
75594;BME280;64176;49.156;7.810;2022-11-11T07:21:31;100841.25;;;3.86;91.36
75594;BME280;64176;49.156;7.810;2022-11-11T07:24:33;100846.59;;;3.90;91.31
75594;BME280;64176;49.156;7.810;2022-11-11T07:27:39;100839.72;;;4.04;90.52
75594;BME280;64176;49.156;7.810;2022-11-11T07:30:44;100854.00;;;4.15;90.74
75594;BME280;64176;49.156;7.810;2022-11-11T07:33:47;100852.13;;;3.98;90.71
75594;BME280;64176;49.156;7.810;2022-11-11T07:36:52;100851.63;;;3.89;90.36
75594;BME280;64176;49.156;7.810;2022-11-11T07:39:55;100857.72;;;3.91;90.71
75594;BME280;64176;49.156;7.810;2022-11-11T07:42:58;100861.53;;;3.97;90.10
75594;BME280;64176;49.156;7.810;2022-11-11T07:46:04;100861.69;;;3.86;89.50
75594;BME280;64176;49.156;7.810;2022-11-11T07:49:09;100867.34;;;3.95;89.59
75594;BME280;64176;49.156;7.810;2022-11-11T07:52:12;100868.81;;;3.91;88.82
75594;BME280;64176;49.156;7.810;2022-11-11T07:55:16;100871.31;;;4.05;89.00
75594;BME280;64176;49.156;7.810;2022-11-11T07:58:21;100869.75;;;4.37;88.45
75594;BME280;64176;49.156;7.810;2022-11-11T08:01:24;100868.97;;;4.38;87.31
75594;BME280;64176;49.156;7.810;2022-11-11T08:04:27;100857.44;;;4.30;87.75
75594;BME280;64176;49.156;7.810;2022-11-11T08:07:35;100844.38;;;4.57;86.52
75594;BME280;64176;49.156;7.810;2022-11-11T08:10:41;100861.00;;;4.80;87.40
75594;BME280;64176;49.156;7.810;2022-11-11T08:13:43;100863.78;;;4.22;88.42
75594;BME280;64176;49.156;7.810;2022-11-11T08:16:52;100849.19;;;4.67;87.69
75594;BME280;64176;49.156;7.810;2022-11-11T08:19:57;100856.53;;;4.92;86.91
75594;BME280;64176;49.156;7.810;2022-11-11T08:23:00;100845.25;;;5.04;86.84
75594;BME280;64176;49.156;7.810;2022-11-11T08:26:06;100851.31;;;4.90;87.87
75594;BME280;64176;49.156;7.810;2022-11-11T08:29:10;100834.97;;;4.88;88.60
75594;BME280;64176;49.156;7.810;2022-11-11T08:32:15;100845.44;;;4.76;90.10
75594;BME280;64176;49.156;7.810;2022-11-11T08:35:18;100845.53;;;4.62;90.32
75594;BME280;64176;49.156;7.810;2022-11-11T08:38:21;100835.13;;;4.75;90.93
75594;BME280;64176;49.156;7.810;2022-11-11T08:41:25;100827.28;;;4.72;91.57
75594;BME280;64176;49.156;7.810;2022-11-11T08:44:28;100841.25;;;5.26;89.43
75594;BME280;64176;49.156;7.810;2022-11-11T08:47:31;100849.09;;;5.29;89.52
75594;BME280;64176;49.156;7.810;2022-11-11T08:50:33;100845.78;;;5.47;89.00
75594;BME280;64176;49.156;7.810;2022-11-11T08:53:36;100834.75;;;5.48;89.02
75594;BME280;64176;49.156;7.810;2022-11-11T08:56:40;100848.66;;;5.54;89.24
75594;BME280;64176;49.156;7.810;2022-11-11T08:59:44;100828.75;;;5.66;89.28
75594;BME280;64176;49.156;7.810;2022-11-11T09:02:47;100840.41;;;5.59;89.06
75594;BME280;64176;49.156;7.810;2022-11-11T09:05:52;100837.38;;;5.50;89.59
75594;BME280;64176;49.156;7.810;2022-11-11T09:08:55;100841.22;;;5.58;89.88
75594;BME280;64176;49.156;7.810;2022-11-11T09:11:58;100838.66;;;5.58;90.70
75594;BME280;64176;49.156;7.810;2022-11-11T09:15:00;100835.91;;;6.05;88.84
75594;BME280;64176;49.156;7.810;2022-11-11T09:18:03;100829.19;;;6.07;88.98
75594;BME280;64176;49.156;7.810;2022-11-11T09:21:07;100823.97;;;6.06;89.33
75594;BME280;64176;49.156;7.810;2022-11-11T09:24:10;100831.78;;;6.09;88.74
75594;BME280;64176;49.156;7.810;2022-11-11T09:27:15;100830.47;;;5.99;89.46
75594;BME280;64176;49.156;7.810;2022-11-11T09:30:18;100822.19;;;6.22;88.87
75594;BME280;64176;49.156;7.810;2022-11-11T09:33:23;100819.31;;;5.99;89.24
75594;BME280;64176;49.156;7.810;2022-11-11T09:36:26;100827.41;;;6.24;89.12
75594;BME280;64176;49.156;7.810;2022-11-11T09:39:29;100832.91;;;6.49;88.25
75594;BME280;64176;49.156;7.810;2022-11-11T09:42:47;100833.47;;;6.44;88.36
75594;BME280;64176;49.156;7.810;2022-11-11T09:46:46;100837.66;;;6.60;88.14
75594;BME280;64176;49.156;7.810;2022-11-11T09:53:10;100844.28;;;6.91;87.85
75594;BME280;64176;49.156;7.810;2022-11-11T09:56:18;100840.63;;;7.06;87.18
75594;BME280;64176;49.156;7.810;2022-11-11T09:59:29;100839.53;;;7.01;88.28
75594;BME280;64176;49.156;7.810;2022-11-11T10:02:44;100841.13;;;7.16;87.77
75594;BME280;64176;49.156;7.810;2022-11-11T10:06:20;100836.84;;;7.17;88.01
75594;BME280;64176;49.156;7.810;2022-11-11T10:12:36;100819.69;;;7.56;87.33
75594;BME280;64176;49.156;7.810;2022-11-11T10:22:34;100811.53;;;8.08;88.17
75594;BME280;64176;49.156;7.810;2022-11-11T10:25:41;100821.59;;;7.81;89.46
75594;BME280;64176;49.156;7.810;2022-11-11T10:28:51;100811.09;;;7.97;89.41
75594;BME280;64176;49.156;7.810;2022-11-11T10:32:02;100809.97;;;8.11;89.01
75594;BME280;64176;49.156;7.810;2022-11-11T10:35:20;100808.09;;;8.28;88.52
75594;BME280;64176;49.156;7.810;2022-11-11T10:41:42;100788.47;;;8.76;87.10
75594;BME280;64176;49.156;7.810;2022-11-11T10:44:50;100792.41;;;8.89;86.67
75594;BME280;64176;49.156;7.810;2022-11-11T10:48:06;100790.22;;;8.99;86.58
75594;BME280;64176;49.156;7.810;2022-11-11T10:51:11;100787.56;;;9.22;86.02
75594;BME280;64176;49.156;7.810;2022-11-11T10:58:09;100783.03;;;9.40;85.81
75594;BME280;64176;49.156;7.810;2022-11-11T11:01:24;100788.94;;;9.36;86.51
75594;BME280;64176;49.156;7.810;2022-11-11T11:07:48;100768.09;;;9.55;85.74
75594;BME280;64176;49.156;7.810;2022-11-11T11:11:04;100771.28;;;9.73;85.96
75594;BME280;64176;49.156;7.810;2022-11-11T11:14:18;100763.06;;;9.85;85.95
75594;BME280;64176;49.156;7.810;2022-11-11T11:17:34;100764.66;;;10.08;85.30
75594;BME280;64176;49.156;7.810;2022-11-11T11:20:39;100746.00;;;10.44;84.01
75594;BME280;64176;49.156;7.810;2022-11-11T11:23:56;100751.84;;;10.67;83.61
75594;BME280;64176;49.156;7.810;2022-11-11T11:27:02;100753.75;;;10.74;83.17
75594;BME280;64176;49.156;7.810;2022-11-11T11:30:10;100751.22;;;10.75;83.22
75594;BME280;64176;49.156;7.810;2022-11-11T11:33:13;100738.53;;;10.84;83.08
75594;BME280;64176;49.156;7.810;2022-11-11T11:36:17;100741.63;;;11.01;82.44
75594;BME280;64176;49.156;7.810;2022-11-11T11:39:34;100736.06;;;11.19;81.63
75594;BME280;64176;49.156;7.810;2022-11-11T11:42:38;100724.22;;;11.28;80.72
75594;BME280;64176;49.156;7.810;2022-11-11T11:45:41;100723.88;;;11.48;80.51
75594;BME280;64176;49.156;7.810;2022-11-11T11:51:57;100733.50;;;11.53;80.92
75594;BME280;64176;49.156;7.810;2022-11-11T11:55:15;100727.41;;;11.51;80.98
75594;BME280;64176;49.156;7.810;2022-11-11T12:02:14;100723.78;;;11.45;81.52
75594;BME280;64176;49.156;7.810;2022-11-11T12:08:46;100729.03;;;11.46;81.09
75594;BME280;64176;49.156;7.810;2022-11-11T12:29:21;100723.31;;;11.61;81.15
75594;BME280;64176;49.156;7.810;2022-11-11T12:45:32;100723.03;;;11.82;82.58
75594;BME280;64176;49.156;7.810;2022-11-11T13:09:45;100706.28;;;12.03;82.53
75594;BME280;64176;49.156;7.810;2022-11-11T13:13:27;100701.22;;;12.10;82.01
75594;BME280;64176;49.156;7.810;2022-11-11T13:16:31;100718.59;;;12.15;81.68
75594;BME280;64176;49.156;7.810;2022-11-11T13:22:50;100718.94;;;12.30;80.84
75594;BME280;64176;49.156;7.810;2022-11-11T13:25:59;100713.91;;;12.36;80.42
75594;BME280;64176;49.156;7.810;2022-11-11T13:32:45;100725.16;;;12.38;80.67
75594;BME280;64176;49.156;7.810;2022-11-11T13:35:54;100726.72;;;12.30;81.26
75594;BME280;64176;49.156;7.810;2022-11-11T13:39:00;100720.38;;;12.18;81.44
75594;BME280;64176;49.156;7.810;2022-11-11T13:42:05;100723.22;;;12.28;81.21
75594;BME280;64176;49.156;7.810;2022-11-11T13:45:21;100717.03;;;12.22;81.09
75594;BME280;64176;49.156;7.810;2022-11-11T13:51:38;100722.06;;;12.14;81.11
75594;BME280;64176;49.156;7.810;2022-11-11T13:54:47;100718.88;;;12.26;81.15
75594;BME280;64176;49.156;7.810;2022-11-11T13:57:53;100725.09;;;12.34;80.30
75594;BME280;64176;49.156;7.810;2022-11-11T14:01:03;100728.41;;;12.28;79.97
75594;BME280;64176;49.156;7.810;2022-11-11T14:04:08;100716.19;;;12.23;79.25
75594;BME280;64176;49.156;7.810;2022-11-11T14:13:49;100721.22;;;12.17;79.38
75594;BME280;64176;49.156;7.810;2022-11-11T14:16:59;100722.47;;;11.95;80.26
75594;BME280;64176;49.156;7.810;2022-11-11T14:23:40;100724.13;;;11.91;79.63
75594;BME280;64176;49.156;7.810;2022-11-11T14:26:56;100728.31;;;11.86;78.97
75594;BME280;64176;49.156;7.810;2022-11-11T14:29:59;100727.06;;;11.72;79.78
75594;BME280;64176;49.156;7.810;2022-11-11T14:33:12;100723.59;;;11.72;79.78
75594;BME280;64176;49.156;7.810;2022-11-11T14:39:44;100734.25;;;11.48;80.68
75594;BME280;64176;49.156;7.810;2022-11-11T14:42:52;100724.53;;;11.41;81.45
75594;BME280;64176;49.156;7.810;2022-11-11T14:46:00;100739.00;;;11.32;81.48
75594;BME280;64176;49.156;7.810;2022-11-11T14:49:08;100737.13;;;11.27;82.97
75594;BME280;64176;49.156;7.810;2022-11-11T14:55:36;100736.53;;;11.04;84.63
75594;BME280;64176;49.156;7.810;2022-11-11T14:58:43;100738.25;;;11.05;83.85
75594;BME280;64176;49.156;7.810;2022-11-11T15:01:46;100757.56;;;10.86;85.20
75594;BME280;64176;49.156;7.810;2022-11-11T15:04:49;100754.38;;;10.65;86.84
75594;BME280;64176;49.156;7.810;2022-11-11T15:07:59;100742.22;;;10.63;86.80
75594;BME280;64176;49.156;7.810;2022-11-11T15:14:47;100743.34;;;10.71;86.15
75594;BME280;64176;49.156;7.810;2022-11-11T15:21:24;100740.09;;;10.48;87.37
75594;BME280;64176;49.156;7.810;2022-11-11T15:24:58;100736.94;;;10.30;88.07
75594;BME280;64176;49.156;7.810;2022-11-11T15:34:54;100732.28;;;10.18;86.75
75594;BME280;64176;49.156;7.810;2022-11-11T15:38:03;100724.09;;;10.04;86.89
75594;BME280;64176;49.156;7.810;2022-11-11T15:41:22;100733.41;;;9.99;87.00
75594;BME280;64176;49.156;7.810;2022-11-11T15:44:29;100737.41;;;9.90;87.47
75594;BME280;64176;49.156;7.810;2022-11-11T15:47:38;100723.31;;;9.80;87.51
75594;BME280;64176;49.156;7.810;2022-11-11T15:50:41;100733.91;;;9.62;87.29
75594;BME280;64176;49.156;7.810;2022-11-11T15:53:44;100742.09;;;9.49;87.76
75594;BME280;64176;49.156;7.810;2022-11-11T15:56:47;100735.41;;;9.56;87.65
75594;BME280;64176;49.156;7.810;2022-11-11T15:59:50;100746.91;;;9.40;87.59
75594;BME280;64176;49.156;7.810;2022-11-11T16:02:55;100745.66;;;9.27;88.19
75594;BME280;64176;49.156;7.810;2022-11-11T16:06:03;100748.88;;;9.22;88.63
75594;BME280;64176;49.156;7.810;2022-11-11T16:09:12;100750.38;;;9.15;88.77
75594;BME280;64176;49.156;7.810;2022-11-11T16:12:30;100753.53;;;9.08;88.56
75594;BME280;64176;49.156;7.810;2022-11-11T16:15:42;100750.81;;;9.03;89.00
75594;BME280;64176;49.156;7.810;2022-11-11T16:18:51;100762.66;;;8.98;89.26
75594;BME280;64176;49.156;7.810;2022-11-11T16:22:10;100761.34;;;8.86;88.99
75594;BME280;64176;49.156;7.810;2022-11-11T16:25:20;100757.28;;;8.68;89.15
75594;BME280;64176;49.156;7.810;2022-11-11T16:28:36;100759.59;;;8.62;88.83
75594;BME280;64176;49.156;7.810;2022-11-11T16:31:40;100762.78;;;8.55;89.22
75594;BME280;64176;49.156;7.810;2022-11-11T16:34:44;100749.84;;;8.31;90.34
75594;BME280;64176;49.156;7.810;2022-11-11T16:37:51;100770.47;;;8.31;89.65
75594;BME280;64176;49.156;7.810;2022-11-11T16:40:54;100766.31;;;8.14;90.66
75594;BME280;64176;49.156;7.810;2022-11-11T16:43:57;100770.25;;;8.04;90.14
75594;BME280;64176;49.156;7.810;2022-11-11T16:47:00;100765.09;;;8.04;90.63
75594;BME280;64176;49.156;7.810;2022-11-11T16:53:31;100771.75;;;7.99;90.73
75594;BME280;64176;49.156;7.810;2022-11-11T16:56:41;100772.88;;;7.85;90.48
75594;BME280;64176;49.156;7.810;2022-11-11T16:59:54;100775.22;;;7.79;90.42
75594;BME280;64176;49.156;7.810;2022-11-11T17:03:17;100765.34;;;7.69;90.24
75594;BME280;64176;49.156;7.810;2022-11-11T17:06:55;100784.63;;;7.79;89.40
75594;BME280;64176;49.156;7.810;2022-11-11T17:13:10;100795.03;;;7.61;90.16
75594;BME280;64176;49.156;7.810;2022-11-11T17:16:13;100788.16;;;7.41;89.09
75594;BME280;64176;49.156;7.810;2022-11-11T17:19:15;100795.75;;;7.18;90.14
75594;BME280;64176;49.156;7.810;2022-11-11T17:22:18;100785.88;;;7.08;90.66
75594;BME280;64176;49.156;7.810;2022-11-11T17:25:21;100782.66;;;7.12;89.92
75594;BME280;64176;49.156;7.810;2022-11-11T17:28:24;100772.78;;;7.02;90.91
75594;BME280;64176;49.156;7.810;2022-11-11T17:31:28;100772.25;;;6.90;91.56
75594;BME280;64176;49.156;7.810;2022-11-11T17:34:31;100757.97;;;6.97;91.22
75594;BME280;64176;49.156;7.810;2022-11-11T17:37:37;100763.53;;;7.06;90.68
75594;BME280;64176;49.156;7.810;2022-11-11T17:40:43;100773.81;;;7.06;90.54
75594;BME280;64176;49.156;7.810;2022-11-11T17:43:47;100767.50;;;6.99;89.87
75594;BME280;64176;49.156;7.810;2022-11-11T17:46:52;100769.94;;;6.96;89.73
75594;BME280;64176;49.156;7.810;2022-11-11T17:50:00;100772.47;;;6.94;89.99
75594;BME280;64176;49.156;7.810;2022-11-11T17:53:04;100775.75;;;6.73;92.38
75594;BME280;64176;49.156;7.810;2022-11-11T17:56:08;100782.03;;;6.60;93.06
75594;BME280;64176;49.156;7.810;2022-11-11T17:59:15;100788.13;;;6.62;93.64
75594;BME280;64176;49.156;7.810;2022-11-11T18:02:18;100792.88;;;6.54;93.99
75594;BME280;64176;49.156;7.810;2022-11-11T18:05:23;100794.50;;;6.52;94.52
75594;BME280;64176;49.156;7.810;2022-11-11T18:08:29;100796.03;;;6.67;93.78
75594;BME280;64176;49.156;7.810;2022-11-11T18:11:34;100802.84;;;6.66;93.64
75594;BME280;64176;49.156;7.810;2022-11-11T18:14:37;100797.38;;;6.78;93.03
75594;BME280;64176;49.156;7.810;2022-11-11T18:17:40;100795.50;;;6.74;92.93
75594;BME280;64176;49.156;7.810;2022-11-11T18:20:47;100791.19;;;6.73;92.81
75594;BME280;64176;49.156;7.810;2022-11-11T18:23:50;100803.41;;;6.78;93.25
75594;BME280;64176;49.156;7.810;2022-11-11T18:26:53;100791.50;;;6.80;93.08
75594;BME280;64176;49.156;7.810;2022-11-11T18:29:56;100796.09;;;6.68;93.55
75594;BME280;64176;49.156;7.810;2022-11-11T18:33:02;100796.88;;;6.48;94.08
75594;BME280;64176;49.156;7.810;2022-11-11T18:36:07;100793.56;;;6.33;94.18
75594;BME280;64176;49.156;7.810;2022-11-11T18:39:13;100801.78;;;6.43;94.21
75594;BME280;64176;49.156;7.810;2022-11-11T18:42:18;100791.59;;;6.45;94.23
75594;BME280;64176;49.156;7.810;2022-11-11T18:45:21;100793.97;;;6.40;93.70